createdAt,value
2023-04-02T00:02:23.277Z,99396.84
2023-04-02T00:05:16.543Z,99416.66
2023-04-02T00:07:49.070Z,99420.84
2023-04-02T00:10:38.000Z,99425.19
2023-04-02T00:13:11.150Z,99423.34
2023-04-02T00:15:39.512Z,99426.81
2023-04-02T00:18:06.915Z,99421.66
2023-04-02T00:20:40.868Z,99426.09
2023-04-02T00:23:11.578Z,99418.41
2023-04-02T00:25:43.177Z,99411.44
2023-04-02T00:28:22.190Z,99421.94
2023-04-02T00:31:01.705Z,99429.88
2023-04-02T00:33:32.258Z,99434.97
2023-04-02T00:35:59.717Z,99434.72
2023-04-02T00:38:30.158Z,99391.09
2023-04-02T00:41:01.790Z,99435.66
2023-04-02T00:43:32.344Z,99423.38
2023-04-02T00:46:03.944Z,99430.41
2023-04-02T00:48:33.837Z,99434.81
2023-04-02T00:51:11.780Z,99442.69
2023-04-02T00:53:39.829Z,99441.81
2023-04-02T00:56:16.839Z,99441.91
2023-04-02T00:58:44.865Z,99446.16
2023-04-02T01:01:25.574Z,99411.44
2023-04-02T01:03:58.252Z,99429.78
2023-04-02T01:06:37.564Z,99446.38
2023-04-02T01:09:40.062Z,99432.44
2023-04-02T01:12:30.278Z,99460.16
2023-04-02T01:15:12.884Z,99455.88
2023-04-02T01:17:49.071Z,99450.72
2023-04-02T01:20:31.398Z,99450.78
2023-04-02T01:23:21.434Z,99454.25
2023-04-02T01:25:55.906Z,99430.59
2023-04-02T01:28:33.803Z,99458.50
2023-04-02T01:31:02.981Z,99436.72
2023-04-02T01:33:33.659Z,99439.38
2023-04-02T01:36:17.629Z,99437.81
2023-04-02T01:38:54.556Z,99451.66
2023-04-02T01:41:33.689Z,99445.56
2023-04-02T01:44:08.644Z,99433.50
2023-04-02T01:46:41.323Z,99434.38
2023-04-02T01:49:18.475Z,99441.38
2023-04-02T01:51:46.520Z,99433.72
2023-04-02T01:54:18.113Z,99411.78
2023-04-02T01:56:47.207Z,99435.31
2023-04-02T01:59:17.513Z,99443.09
2023-04-02T02:02:05.494Z,99442.28
2023-04-02T02:04:35.679Z,99437.00
2023-04-02T02:07:04.262Z,99436.97
2023-04-02T02:09:35.754Z,99437.97
2023-04-02T02:12:04.585Z,99442.34
2023-04-02T02:14:32.689Z,99431.06
2023-04-02T02:17:02.610Z,99433.69
2023-04-02T02:19:35.842Z,99441.59
2023-04-02T02:22:30.918Z,99419.06
2023-04-02T02:25:00.793Z,99439.97
2023-04-02T02:27:28.164Z,99446.91
2023-04-02T02:30:31.622Z,99417.31
2023-04-02T02:33:17.302Z,99446.66
2023-04-02T02:36:15.284Z,99445.00
2023-04-02T02:38:54.085Z,99447.59
2023-04-02T02:41:41.705Z,99457.09
2023-04-02T02:44:09.450Z,99448.38
2023-04-02T02:46:43.585Z,99438.78
2023-04-02T02:49:28.468Z,99452.78
2023-04-02T02:52:08.913Z,99455.25
2023-04-02T02:54:51.896Z,99458.72
2023-04-02T02:57:23.232Z,99435.94
2023-04-02T02:59:52.986Z,99445.34
2023-04-02T03:02:20.400Z,99442.84
2023-04-02T03:04:50.986Z,99389.56
2023-04-02T03:07:19.607Z,99444.66
2023-04-02T03:10:13.279Z,99456.00
2023-04-02T03:13:05.274Z,99460.34
2023-04-02T03:15:41.373Z,99456.75
2023-04-02T03:18:14.910Z,99474.22
2023-04-02T03:21:06.779Z,99467.19
2023-04-02T03:23:42.724Z,99479.31
2023-04-02T03:26:23.008Z,99457.72
2023-04-02T03:28:58.075Z,99478.28
2023-04-02T03:31:32.535Z,99473.09
2023-04-02T03:34:08.652Z,99453.19
2023-04-02T03:36:43.784Z,99471.56
2023-04-02T03:39:20.668Z,99461.06
2023-04-02T03:41:52.690Z,99475.84
2023-04-02T03:44:27.264Z,99479.44
2023-04-02T03:47:01.616Z,99476.94
2023-04-02T03:49:43.335Z,99487.38
2023-04-02T03:52:31.124Z,99477.16
2023-04-02T03:55:10.311Z,99464.97
2023-04-02T03:57:56.576Z,99473.59
2023-04-02T04:00:57.873Z,99484.00
2023-04-02T04:03:45.237Z,99461.41
2023-04-02T04:06:21.314Z,99480.63
2023-04-02T04:08:57.139Z,99484.00
2023-04-02T04:11:53.125Z,99483.22
2023-04-02T04:14:35.692Z,99466.63
2023-04-02T04:17:34.836Z,99468.53
2023-04-02T04:20:16.036Z,99483.34
2023-04-02T04:22:43.141Z,99471.25
2023-04-02T04:25:35.350Z,99459.81
2023-04-02T04:28:32.910Z,99476.38
2023-04-02T04:31:47.359Z,99473.06
2023-04-02T04:34:30.176Z,99453.88
2023-04-02T04:37:02.193Z,99482.53
2023-04-02T04:39:44.909Z,99485.91
2023-04-02T04:42:24.796Z,99494.53
2023-04-02T04:45:00.722Z,99508.16
2023-04-02T04:47:39.389Z,99486.41
2023-04-02T04:50:38.959Z,99513.44
2023-04-02T04:53:14.245Z,99515.22
2023-04-02T04:55:45.721Z,99516.09
2023-04-02T04:58:37.753Z,99505.38
2023-04-02T05:01:17.287Z,99514.31
2023-04-02T05:04:01.577Z,99512.44
2023-04-02T05:06:37.789Z,99519.19
2023-04-02T05:09:33.277Z,99518.38
2023-04-02T05:12:24.895Z,99519.19
2023-04-02T05:15:11.277Z,99520.09
2023-04-02T05:17:44.177Z,99519.88
2023-04-02T05:20:33.633Z,99521.69
2023-04-02T05:23:10.789Z,99519.97
2023-04-02T05:25:50.102Z,99519.94
2023-04-02T05:28:23.898Z,99517.47
2023-04-02T05:30:56.594Z,99508.84
2023-04-02T05:33:28.711Z,99513.94
2023-04-02T05:36:14.286Z,99501.69
2023-04-02T05:38:48.801Z,99526.22
2023-04-02T05:41:39.502Z,99510.59
2023-04-02T05:44:27.363Z,99515.75
2023-04-02T05:47:07.164Z,99517.34
2023-04-02T05:49:53.769Z,99551.25
2023-04-02T05:52:34.151Z,99543.50
2023-04-02T05:55:10.319Z,99548.78
2023-04-02T05:58:13.609Z,99531.28
2023-04-02T06:00:39.353Z,99544.47
2023-04-02T06:03:29.011Z,99536.72
2023-04-02T06:06:03.036Z,99554.88
2023-04-02T06:08:37.468Z,99538.53
2023-04-02T06:11:14.505Z,99525.59
2023-04-02T06:13:43.150Z,99532.69
2023-04-02T06:16:15.280Z,99529.06
2023-04-02T06:18:43.895Z,99539.50
2023-04-02T06:21:15.034Z,99554.38
2023-04-02T06:24:13.766Z,99544.22
2023-04-02T06:26:45.168Z,99554.56
2023-04-02T06:29:40.312Z,99547.72
2023-04-02T06:32:12.764Z,99553.66
2023-04-02T06:34:43.111Z,99545.06
2023-04-02T06:37:37.744Z,99530.50
2023-04-02T06:40:49.753Z,99544.59
2023-04-02T06:43:44.185Z,99540.00
2023-04-02T06:46:31.544Z,99538.38
2023-04-02T06:49:14.551Z,99536.53
2023-04-02T06:51:44.661Z,99533.25
2023-04-02T06:54:16.989Z,99538.59
2023-04-02T06:56:51.385Z,99516.69
2023-04-02T06:59:25.747Z,99525.63
2023-04-02T07:02:16.123Z,99539.31
2023-04-02T07:04:43.376Z,99548.91
2023-04-02T07:07:10.466Z,99549.13
2023-04-02T07:09:40.719Z,99550.94
2023-04-02T07:12:14.131Z,99555.94
2023-04-02T07:14:42.734Z,99556.06
2023-04-02T07:17:17.862Z,99560.63
2023-04-02T07:19:49.260Z,99556.16
2023-04-02T07:22:19.498Z,99552.56
2023-04-02T07:24:50.188Z,99557.78
2023-04-02T07:27:17.413Z,99558.44
2023-04-02T07:29:44.443Z,99565.56
2023-04-02T07:32:13.297Z,99530.75
2023-04-02T07:34:43.257Z,99510.63
2023-04-02T07:37:14.666Z,99569.69
2023-04-02T07:39:41.941Z,99565.97
2023-04-02T07:42:08.957Z,99572.16
2023-04-02T07:44:36.010Z,99572.97
2023-04-02T07:47:03.127Z,99541.72
2023-04-02T07:49:30.123Z,99550.56
2023-04-02T07:51:57.265Z,99545.38
2023-04-02T07:54:24.221Z,99588.09
2023-04-02T07:56:51.303Z,99570.75
2023-04-02T07:59:18.307Z,99581.16
2023-04-02T08:01:45.364Z,99574.19
2023-04-02T08:04:20.908Z,99581.97
2023-04-02T08:06:49.078Z,99580.22
2023-04-02T08:09:17.296Z,99581.00
2023-04-02T08:11:44.461Z,99571.59
2023-04-02T08:14:11.615Z,99575.81
2023-04-02T08:16:50.250Z,99579.09
2023-04-02T08:19:17.610Z,99589.22
2023-04-02T08:21:44.918Z,99592.97
2023-04-02T08:24:11.974Z,99580.78
2023-04-02T08:26:38.926Z,99596.41
2023-04-02T08:29:06.025Z,99559.94
2023-04-02T08:31:32.968Z,99594.69
2023-04-02T08:33:59.923Z,99588.59
2023-04-02T08:36:33.309Z,99584.78
2023-04-02T08:39:01.177Z,99586.47
2023-04-02T08:41:28.653Z,99596.22
2023-04-02T08:44:24.308Z,99602.34
2023-04-02T08:47:01.462Z,99595.59
2023-04-02T08:49:32.841Z,99600.25
2023-04-02T08:52:00.043Z,99592.50
2023-04-02T08:54:34.323Z,99596.75
2023-04-02T08:57:14.818Z,99572.56
2023-04-02T08:59:44.473Z,99584.75
2023-04-02T09:02:20.861Z,99591.09
2023-04-02T09:04:48.165Z,99588.13
2023-04-02T09:07:17.132Z,99594.25
2023-04-02T09:09:48.796Z,99596.94
2023-04-02T09:12:21.796Z,99578.78
2023-04-02T09:15:16.382Z,99595.50
2023-04-02T09:17:53.741Z,99596.19
2023-04-02T09:20:26.390Z,99596.31
2023-04-02T09:22:54.760Z,99601.66
2023-04-02T09:25:26.988Z,99602.53
2023-04-02T09:27:56.248Z,99597.22
2023-04-02T09:30:32.216Z,99602.31
2023-04-02T09:33:09.409Z,99597.13
2023-04-02T09:35:51.521Z,99598.03
2023-04-02T09:38:23.540Z,99592.75
2023-04-02T09:40:55.729Z,99600.59
2023-04-02T09:43:25.739Z,99614.50
2023-04-02T09:46:02.400Z,99598.09
2023-04-02T09:48:32.080Z,99608.56
2023-04-02T09:51:16.421Z,99608.59
2023-04-02T09:54:03.178Z,99604.22
2023-04-02T09:56:35.650Z,99610.31
2023-04-02T09:59:13.366Z,99610.28
2023-04-02T10:01:42.849Z,99611.94
2023-04-02T10:04:37.649Z,99611.16
2023-04-02T10:07:06.585Z,99613.69
2023-04-02T10:09:36.605Z,99561.31
2023-04-02T10:12:07.712Z,99615.22
2023-04-02T10:14:40.093Z,99609.13
2023-04-02T10:17:23.518Z,99591.03
2023-04-02T10:20:17.334Z,99596.31
2023-04-02T10:22:45.916Z,99605.88
2023-04-02T10:25:17.573Z,99612.13
2023-04-02T10:28:03.604Z,99613.97
2023-04-02T10:30:41.658Z,99607.63
2023-04-02T10:33:24.421Z,99605.00
2023-04-02T10:36:03.331Z,99618.19
2023-04-02T10:38:39.488Z,99615.81
2023-04-02T10:41:21.279Z,99610.78
2023-04-02T10:44:16.802Z,99615.28
2023-04-02T10:47:01.918Z,99622.50
2023-04-02T10:49:35.662Z,99617.44
2023-04-02T10:52:07.722Z,99611.53
2023-04-02T10:54:40.517Z,99596.09
2023-04-02T10:57:26.932Z,99597.13
2023-04-02T11:00:17.998Z,99604.72
2023-04-02T11:03:03.286Z,99599.69
2023-04-02T11:05:40.430Z,99592.75
2023-04-02T11:08:15.762Z,99591.22
2023-04-02T11:10:49.159Z,99584.38
2023-04-02T11:13:24.514Z,99587.88
2023-04-02T11:15:51.914Z,99593.03
2023-04-02T11:19:04.945Z,99585.28
2023-04-02T11:21:57.975Z,99589.59
2023-04-02T11:24:42.954Z,99577.44
2023-04-02T11:27:27.508Z,99575.75
2023-04-02T11:30:24.508Z,99548.81
2023-04-02T11:32:52.035Z,99561.09
2023-04-02T11:35:38.538Z,99549.00
2023-04-02T11:38:12.667Z,99575.91
2023-04-02T11:40:55.165Z,99561.16
2023-04-02T11:43:34.476Z,99588.16
2023-04-02T11:46:16.941Z,99590.75
2023-04-02T11:48:44.046Z,99590.69
2023-04-02T11:51:23.156Z,99594.22
2023-04-02T11:53:54.935Z,99584.56
2023-04-02T11:56:46.255Z,99600.25
2023-04-02T11:59:36.779Z,99599.38
2023-04-02T12:02:28.930Z,99600.16
2023-04-02T12:05:27.254Z,99592.25
2023-04-02T12:08:44.274Z,99601.00
2023-04-02T12:11:14.830Z,99588.63
2023-04-02T12:13:41.757Z,99598.16
2023-04-02T12:16:10.969Z,99591.09
2023-04-02T12:18:46.955Z,99598.06
2023-04-02T12:21:19.261Z,99601.47
2023-04-02T12:23:48.212Z,99601.56
2023-04-02T12:26:32.043Z,99591.13
2023-04-02T12:29:28.553Z,99601.53
2023-04-02T12:31:58.195Z,99601.47
2023-04-02T12:34:28.335Z,99605.00
2023-04-02T12:37:03.820Z,99593.78
2023-04-02T12:39:32.817Z,99599.03
2023-04-02T12:42:00.106Z,99565.91
2023-04-02T12:44:29.347Z,99584.28
2023-04-02T12:46:57.302Z,99590.53
2023-04-02T12:49:44.086Z,99580.16
2023-04-02T12:52:16.880Z,99603.63
2023-04-02T12:54:54.387Z,99595.00
2023-04-02T12:57:32.366Z,99596.75
2023-04-02T13:00:27.575Z,99601.94
2023-04-02T13:03:06.621Z,99595.03
2023-04-02T13:05:35.437Z,99608.91
2023-04-02T13:08:04.214Z,99601.09
2023-04-02T13:10:31.928Z,99602.84
2023-04-02T13:13:01.068Z,99584.59
2023-04-02T13:15:34.548Z,99582.00
2023-04-02T13:18:19.178Z,99590.69
2023-04-02T13:20:59.996Z,99586.41
2023-04-02T13:23:29.976Z,99602.84
2023-04-02T13:26:02.449Z,99600.19
2023-04-02T13:28:29.785Z,99597.63
2023-04-02T13:30:56.755Z,99551.56
2023-04-02T13:33:23.768Z,99604.53
2023-04-02T13:35:50.910Z,99601.88
2023-04-02T13:38:17.943Z,99601.81
2023-04-02T13:40:45.041Z,99615.75
2023-04-02T13:43:18.211Z,99613.06
2023-04-02T13:45:50.571Z,99594.81
2023-04-02T13:48:18.590Z,99604.41
2023-04-02T13:50:46.847Z,99608.69
2023-04-02T13:53:29.146Z,99600.00
2023-04-02T13:55:56.689Z,99615.66
2023-04-02T13:58:23.721Z,99602.63
2023-04-02T14:00:51.216Z,99609.59
2023-04-02T14:03:22.127Z,99600.09
2023-04-02T14:06:18.549Z,99607.06
2023-04-02T14:08:51.506Z,99611.41
2023-04-02T14:11:33.547Z,99608.84
2023-04-02T14:14:21.757Z,99618.38
2023-04-02T14:17:18.048Z,99616.66
2023-04-02T14:20:03.219Z,99613.22
2023-04-02T14:22:45.171Z,99611.44
2023-04-02T14:25:30.259Z,99603.66
2023-04-02T14:28:22.305Z,99610.63
2023-04-02T14:30:52.011Z,99605.28
2023-04-02T14:33:33.874Z,99599.16
2023-04-02T14:36:18.046Z,99600.06
2023-04-02T14:39:00.737Z,99611.38
2023-04-02T14:41:58.341Z,99605.31
2023-04-02T14:44:28.931Z,99607.88
2023-04-02T14:47:16.878Z,99594.69
2023-04-02T14:49:46.264Z,99594.66
2023-04-02T14:52:22.847Z,99607.81
2023-04-02T14:55:02.547Z,99610.38
2023-04-02T14:57:33.386Z,99606.81
2023-04-02T15:00:05.649Z,99606.84
2023-04-02T15:02:41.658Z,99609.56
2023-04-02T15:05:29.971Z,99587.88
2023-04-02T15:08:06.404Z,99593.06
2023-04-02T15:10:47.115Z,99604.31
2023-04-02T15:13:21.995Z,99584.19
2023-04-02T15:16:04.451Z,99591.22
2023-04-02T15:18:31.447Z,99581.69
2023-04-02T15:21:32.275Z,99593.94
2023-04-02T15:24:32.864Z,99589.59
2023-04-02T15:27:14.682Z,99596.59
2023-04-02T15:30:31.726Z,99600.84
2023-04-02T15:33:24.554Z,99595.69
2023-04-02T15:35:58.274Z,99585.94
2023-04-02T15:38:38.175Z,99600.84
2023-04-02T15:41:33.622Z,99604.31
2023-04-02T15:44:13.623Z,99601.63
2023-04-02T15:47:09.918Z,99595.41
2023-04-02T15:49:47.290Z,99602.44
2023-04-02T15:52:23.198Z,99606.78
2023-04-02T15:55:23.022Z,99614.63
2023-04-02T15:58:11.929Z,99612.84
2023-04-02T16:00:54.266Z,99610.19
2023-04-02T16:03:42.062Z,99574.50
2023-04-02T16:06:18.010Z,99614.53
2023-04-02T16:08:57.334Z,99619.72
2023-04-02T16:11:25.975Z,99615.28
2023-04-02T16:14:04.165Z,99625.75
2023-04-02T16:16:41.827Z,99570.03
2023-04-02T16:19:27.531Z,99633.53
2023-04-02T16:22:02.727Z,99625.69
2023-04-02T16:24:29.700Z,99637.00
2023-04-02T16:27:21.074Z,99583.06
2023-04-02T16:30:01.125Z,99640.53
2023-04-02T16:33:02.254Z,99628.34
2023-04-02T16:35:53.312Z,99649.16
2023-04-02T16:38:29.307Z,99656.03
2023-04-02T16:41:31.582Z,99655.19
2023-04-02T16:44:19.113Z,99629.91
2023-04-02T16:46:57.977Z,99658.50
2023-04-02T16:49:38.849Z,99652.44
2023-04-02T16:52:43.271Z,99663.81
2023-04-02T16:55:13.043Z,99675.06
2023-04-02T16:57:50.949Z,99676.81
2023-04-02T17:00:37.249Z,99671.63
2023-04-02T17:03:22.852Z,99672.44
2023-04-02T17:06:06.825Z,99668.00
2023-04-02T17:08:43.801Z,99668.06
2023-04-02T17:11:41.425Z,99675.94
2023-04-02T17:14:27.276Z,99670.69
2023-04-02T17:17:03.994Z,99681.09
2023-04-02T17:19:32.570Z,99685.41
2023-04-02T17:22:02.181Z,99648.78
2023-04-02T17:24:50.870Z,99678.41
2023-04-02T17:27:41.193Z,99665.41
2023-04-02T17:30:18.024Z,99620.09
2023-04-02T17:32:45.051Z,99681.00
2023-04-02T17:35:48.360Z,99688.00
2023-04-02T17:38:40.515Z,99667.94
2023-04-02T17:41:40.463Z,99698.38
2023-04-02T17:44:32.119Z,99694.88
2023-04-02T17:47:04.945Z,99690.53
2023-04-02T17:49:49.916Z,99698.34
2023-04-02T17:52:33.295Z,99699.22
2023-04-02T17:55:12.485Z,99694.81
2023-04-02T17:58:05.273Z,99692.25
2023-04-02T18:00:47.464Z,99695.69
2023-04-02T18:03:32.075Z,99698.34
2023-04-02T18:06:10.071Z,99695.69
2023-04-02T18:09:19.341Z,99698.34
2023-04-02T18:12:13.643Z,99690.47
2023-04-02T18:14:50.348Z,99704.34
2023-04-02T18:17:37.569Z,99697.47
2023-04-02T18:20:28.757Z,99700.94
2023-04-02T18:23:23.042Z,99698.25
2023-04-02T18:26:02.553Z,99708.66
2023-04-02T18:28:40.933Z,99704.31
2023-04-02T18:31:14.839Z,99702.59
2023-04-02T18:34:19.836Z,99703.31
2023-04-02T18:37:02.930Z,99706.78
2023-04-02T18:39:45.069Z,99708.50
2023-04-02T18:42:24.096Z,99685.84
2023-04-02T18:44:54.059Z,99710.25
2023-04-02T18:47:23.918Z,99685.06
2023-04-02T18:50:11.585Z,99707.66
2023-04-02T18:52:39.490Z,99710.38
2023-04-02T18:55:15.072Z,99699.84
2023-04-02T18:57:45.146Z,99709.38
2023-04-02T19:00:15.500Z,99699.84
2023-04-02T19:02:48.790Z,99720.72
2023-04-02T19:05:54.069Z,99717.25
2023-04-02T19:08:28.466Z,99707.63
2023-04-02T19:11:00.795Z,99718.91
2023-04-02T19:13:27.779Z,99709.38
2023-04-02T19:15:54.706Z,99728.50
2023-04-02T19:18:36.084Z,99725.81
2023-04-02T19:21:27.465Z,99725.91
2023-04-02T19:24:20.839Z,99710.25
2023-04-02T19:26:57.248Z,99720.72
2023-04-02T19:29:31.485Z,99709.44
2023-04-02T19:32:07.185Z,99724.25
2023-04-02T19:34:47.305Z,99712.09
2023-04-02T19:37:39.582Z,99721.63
2023-04-02T19:40:27.492Z,99722.47
2023-04-02T19:42:54.869Z,99725.97
2023-04-02T19:45:36.556Z,99727.72
2023-04-02T19:48:14.676Z,99723.38
2023-04-02T19:50:41.729Z,99729.38
2023-04-02T19:53:08.772Z,99725.06
2023-04-02T19:55:36.084Z,99729.44
2023-04-02T19:58:17.348Z,99733.72
2023-04-02T20:00:46.256Z,99735.38
2023-04-02T20:03:13.258Z,99734.50
2023-04-02T20:05:40.225Z,99735.38
2023-04-02T20:08:07.138Z,99704.88
2023-04-02T20:10:35.216Z,99743.22
2023-04-02T20:13:02.371Z,99738.03
2023-04-02T20:15:29.425Z,99737.19
2023-04-02T20:17:56.441Z,99731.91
2023-04-02T20:20:23.464Z,99737.97
2023-04-02T20:22:50.641Z,99734.47
2023-04-02T20:25:17.685Z,99735.28
2023-04-02T20:27:44.660Z,99750.06
2023-04-02T20:30:12.094Z,99736.16
2023-04-02T20:32:39.183Z,99724.81
2023-04-02T20:35:06.891Z,99719.56
2023-04-02T20:37:34.266Z,99745.75
2023-04-02T20:40:01.437Z,99744.00
2023-04-02T20:42:28.931Z,99746.63
2023-04-02T20:44:55.889Z,99748.38
2023-04-02T20:47:22.983Z,99753.56
2023-04-02T20:49:50.508Z,99752.69
2023-04-02T20:52:17.514Z,99747.56
2023-04-02T20:54:44.523Z,99746.69
2023-04-02T20:57:11.489Z,99744.94
2023-04-02T20:59:38.461Z,99734.44
2023-04-02T21:02:05.498Z,99692.56
2023-04-02T21:04:32.449Z,99742.25
2023-04-02T21:06:59.474Z,99742.22
2023-04-02T21:09:27.084Z,99745.72
2023-04-02T21:11:54.151Z,99744.81
2023-04-02T21:14:21.154Z,99746.47
2023-04-02T21:16:48.112Z,99752.50
2023-04-02T21:19:15.170Z,99722.84
2023-04-02T21:21:44.327Z,99736.66
2023-04-02T21:24:11.428Z,99747.16
2023-04-02T21:26:40.461Z,99748.94
2023-04-02T21:29:07.844Z,99740.22
2023-04-02T21:31:37.714Z,99742.03
2023-04-02T21:34:06.130Z,99747.22
2023-04-02T21:36:40.714Z,99742.91
2023-04-02T21:39:12.992Z,99743.72
2023-04-02T21:41:42.977Z,99734.06
2023-04-02T21:44:14.093Z,99754.94
2023-04-02T21:46:44.844Z,99747.94
2023-04-02T21:49:14.074Z,99748.78
2023-04-02T21:51:42.639Z,99759.19
2023-04-02T21:54:10.086Z,99742.63
2023-04-02T21:56:39.460Z,99681.53
2023-04-02T21:59:08.263Z,99772.06
2023-04-02T22:01:38.312Z,99758.19
2023-04-02T22:04:08.043Z,99756.31
2023-04-02T22:06:40.792Z,99763.25
2023-04-02T22:09:11.500Z,99763.22
2023-04-02T22:11:42.456Z,99752.75
2023-04-02T22:14:09.786Z,99759.69
2023-04-02T22:16:37.371Z,99761.41
2023-04-02T22:19:07.090Z,99767.53
2023-04-02T22:21:34.179Z,99756.09
2023-04-02T22:24:03.341Z,99763.03
2023-04-02T22:26:31.586Z,99753.38
2023-04-02T22:28:59.313Z,99768.00
2023-04-02T22:31:28.536Z,99758.41
2023-04-02T22:33:56.679Z,99759.28
2023-04-02T22:36:25.020Z,99760.13
2023-04-02T22:38:51.996Z,99726.91
2023-04-02T22:41:26.486Z,99744.41
2023-04-02T22:43:54.752Z,99765.31
2023-04-02T22:46:21.815Z,99759.22
2023-04-02T22:48:49.680Z,99762.69
2023-04-02T22:51:19.297Z,99761.75
2023-04-02T22:53:47.118Z,99760.88
2023-04-02T22:56:19.768Z,99754.69
2023-04-02T22:58:46.889Z,99748.44
2023-04-02T23:01:21.463Z,99758.81
2023-04-02T23:03:48.960Z,99754.47
2023-04-02T23:06:18.313Z,99764.00
2023-04-02T23:08:46.618Z,99751.75
2023-04-02T23:11:22.347Z,99768.31
2023-04-02T23:13:51.767Z,99757.84
2023-04-02T23:16:19.404Z,99767.34
2023-04-02T23:18:48.195Z,99761.19
2023-04-02T23:21:16.907Z,99772.53
2023-04-02T23:23:44.560Z,99755.09
2023-04-02T23:26:23.313Z,99775.13
2023-04-02T23:28:51.197Z,99755.00
2023-04-02T23:31:21.075Z,99778.53
2023-04-02T23:33:48.522Z,99779.44
2023-04-02T23:36:21.109Z,99778.56
2023-04-02T23:38:48.141Z,99782.03
2023-04-02T23:41:17.015Z,99768.06
2023-04-02T23:43:44.350Z,99781.81
2023-04-02T23:46:11.755Z,99757.31
2023-04-02T23:48:38.875Z,99763.16
2023-04-02T23:51:06.905Z,99770.16
2023-04-02T23:53:34.917Z,99768.47
2023-04-02T23:56:01.930Z,99771.88
2023-04-02T23:58:28.897Z,99768.34
